createdAt,value
2018-09-17T00:00:16.594Z,16.50
2018-09-17T00:02:45.088Z,16.50
2018-09-17T00:05:13.618Z,16.60
2018-09-17T00:07:42.095Z,16.60
2018-09-17T00:10:10.234Z,16.70
2018-09-17T00:12:38.711Z,16.70
2018-09-17T00:15:07.214Z,16.70
2018-09-17T00:17:35.674Z,16.70
2018-09-17T00:20:04.226Z,16.70
2018-09-17T00:22:32.686Z,16.70
2018-09-17T00:25:01.157Z,16.70
2018-09-17T00:27:29.635Z,16.70
2018-09-17T00:29:58.114Z,16.80
2018-09-17T00:32:26.594Z,16.80
2018-09-17T00:34:55.161Z,16.80
2018-09-17T00:37:23.650Z,16.80
2018-09-17T00:39:52.129Z,16.80
2018-09-17T00:42:20.674Z,16.80
2018-09-17T00:44:49.137Z,16.80
2018-09-17T00:47:17.597Z,16.80
2018-09-17T00:49:46.082Z,16.90
2018-09-17T00:52:14.546Z,16.90
2018-09-17T00:54:43.068Z,16.90
2018-09-17T00:57:11.614Z,16.90
2018-09-17T00:59:40.155Z,16.90
2018-09-17T01:02:08.658Z,16.90
2018-09-17T01:04:37.277Z,16.90
2018-09-17T01:07:05.764Z,17.00
2018-09-17T01:09:39.666Z,16.90
2018-09-17T01:12:08.143Z,16.90
2018-09-17T01:14:36.767Z,16.90
2018-09-17T01:17:05.268Z,16.90
2018-09-17T01:19:33.742Z,16.90
2018-09-17T01:22:02.219Z,17.00
2018-09-17T01:24:30.878Z,17.00
2018-09-17T01:26:59.353Z,17.00
2018-09-17T01:29:27.833Z,17.00
2018-09-17T01:32:04.982Z,17.10
2018-09-17T01:34:33.488Z,17.10
2018-09-17T01:37:01.959Z,17.10
2018-09-17T01:39:30.467Z,17.20
2018-09-17T01:41:59.005Z,17.20
2018-09-17T01:44:27.490Z,17.20
2018-09-17T01:46:56.026Z,17.20
2018-09-17T01:49:24.508Z,17.30
2018-09-17T01:51:52.962Z,17.30
2018-09-17T01:54:21.505Z,17.30
2018-09-17T01:56:49.982Z,17.30
2018-09-17T01:59:18.444Z,17.30
2018-09-17T02:01:46.933Z,17.40
2018-09-17T02:04:15.367Z,17.40
2018-09-17T02:06:43.831Z,17.40
2018-09-17T02:09:12.367Z,17.40
2018-09-17T02:11:40.786Z,17.40
2018-09-17T02:14:09.303Z,17.40
2018-09-17T02:16:37.890Z,17.40
2018-09-17T02:19:06.414Z,17.40
2018-09-17T02:21:34.931Z,17.40
2018-09-17T02:24:03.446Z,17.40
2018-09-17T02:26:31.926Z,17.40
2018-09-17T02:29:00.386Z,17.40
2018-09-17T02:31:28.972Z,17.40
2018-09-17T02:33:57.450Z,17.40
2018-09-17T02:36:25.918Z,17.40
2018-09-17T02:38:54.456Z,17.30
2018-09-17T02:41:22.928Z,17.30
2018-09-17T02:43:51.410Z,17.30
2018-09-17T02:46:19.978Z,17.30
2018-09-17T02:48:48.450Z,17.20
2018-09-17T02:51:16.954Z,17.20
2018-09-17T02:53:45.522Z,17.20
2018-09-17T02:56:13.966Z,17.20
2018-09-17T02:58:42.465Z,17.20
2018-09-17T03:01:10.954Z,17.10
2018-09-17T03:03:39.422Z,17.10
2018-09-17T03:06:07.875Z,17.10
2018-09-17T03:08:36.362Z,17.10
2018-09-17T03:11:04.854Z,17.10
2018-09-17T03:13:33.294Z,17.00
2018-09-17T03:16:01.811Z,17.00
2018-09-17T03:18:41.554Z,17.00
2018-09-17T03:21:10.058Z,17.00
2018-09-17T03:23:38.854Z,16.90
2018-09-17T03:26:07.297Z,16.90
2018-09-17T03:28:35.921Z,16.90
2018-09-17T03:31:04.427Z,16.90
2018-09-17T03:33:32.881Z,16.80
2018-09-17T03:36:01.437Z,16.80
2018-09-17T03:38:37.254Z,16.80
2018-09-17T03:41:07.013Z,16.80
2018-09-17T03:43:36.211Z,16.70
2018-09-17T03:46:04.740Z,16.70
2018-09-17T03:48:34.273Z,16.70
2018-09-17T03:51:03.519Z,16.70
2018-09-17T03:53:32.226Z,16.60
2018-09-17T03:56:00.723Z,16.60
2018-09-17T03:58:29.761Z,16.60
2018-09-17T04:00:58.873Z,16.60
2018-09-17T04:03:27.402Z,16.60
2018-09-17T04:05:55.946Z,16.50
2018-09-17T04:08:24.453Z,16.50
2018-09-17T04:10:52.982Z,16.50
2018-09-17T04:13:21.474Z,16.50
2018-09-17T04:15:49.950Z,16.50
2018-09-17T04:18:18.436Z,16.50
2018-09-17T04:20:46.896Z,16.50
2018-09-17T04:23:19.623Z,16.40
2018-09-17T04:25:48.106Z,16.40
2018-09-17T04:28:16.579Z,16.40
2018-09-17T04:30:45.121Z,16.40
2018-09-17T04:33:13.675Z,16.30
2018-09-17T04:35:42.130Z,16.30
2018-09-17T04:38:10.646Z,16.20
2018-09-17T04:40:39.142Z,16.20
2018-09-17T04:43:07.602Z,16.10
2018-09-17T04:45:36.107Z,16.10
2018-09-17T04:48:04.602Z,16.10
2018-09-17T04:50:33.074Z,16.10
2018-09-17T04:53:01.553Z,16.20
2018-09-17T04:55:30.019Z,16.20
2018-09-17T04:57:58.490Z,16.10
2018-09-17T05:00:27.073Z,16.20
2018-09-17T05:02:55.593Z,16.20
2018-09-17T05:05:24.142Z,16.20
2018-09-17T05:07:52.641Z,16.20
2018-09-17T05:10:21.098Z,16.20
2018-09-17T05:12:49.614Z,16.30
2018-09-17T05:15:18.182Z,16.30
2018-09-17T05:17:46.730Z,16.30
2018-09-17T05:20:15.206Z,16.30
2018-09-17T05:22:43.719Z,16.40
2018-09-17T05:25:12.161Z,16.40
2018-09-17T05:27:40.643Z,16.50
2018-09-17T05:30:09.154Z,16.50
2018-09-17T05:32:37.589Z,16.40
2018-09-17T05:35:06.195Z,16.50
2018-09-17T05:37:34.653Z,16.50
2018-09-17T05:40:03.110Z,16.50
2018-09-17T05:42:31.607Z,16.50
2018-09-17T05:45:00.127Z,16.50
2018-09-17T05:47:28.570Z,16.50
2018-09-17T05:49:57.014Z,16.50
2018-09-17T05:52:25.504Z,16.50
2018-09-17T05:54:53.938Z,16.50
2018-09-17T05:57:22.372Z,16.50
2018-09-17T05:59:50.875Z,16.60
2018-09-17T06:02:19.342Z,16.60
2018-09-17T06:04:47.842Z,16.60
2018-09-17T06:07:16.360Z,16.60
2018-09-17T06:09:44.914Z,16.60
2018-09-17T06:12:13.334Z,16.60
2018-09-17T06:14:42.088Z,16.70
2018-09-17T06:17:10.498Z,16.70
2018-09-17T06:19:38.958Z,16.70
2018-09-17T06:22:07.470Z,16.70
2018-09-17T06:24:35.918Z,16.80
2018-09-17T06:27:04.375Z,16.80
2018-09-17T06:29:32.840Z,16.80
2018-09-17T06:32:01.344Z,16.80
2018-09-17T06:34:29.910Z,16.90
2018-09-17T06:36:58.756Z,17.00
2018-09-17T06:39:27.199Z,17.00
2018-09-17T06:41:55.686Z,17.10
2018-09-17T06:44:24.218Z,17.10
2018-09-17T06:46:52.674Z,17.20
2018-09-17T06:49:21.151Z,17.30
2018-09-17T06:51:49.667Z,17.30
2018-09-17T06:54:18.119Z,17.40
2018-09-17T06:56:46.612Z,17.50
2018-09-17T06:59:15.116Z,17.60
2018-09-17T07:01:43.587Z,17.70
2018-09-17T07:04:12.031Z,17.80
2018-09-17T07:06:40.840Z,17.90
2018-09-17T07:09:10.886Z,18.10
2018-09-17T07:11:39.376Z,18.10
2018-09-17T07:14:08.073Z,18.10
2018-09-17T07:16:36.518Z,18.00
2018-09-17T07:19:04.974Z,18.00
2018-09-17T07:21:33.730Z,18.00
2018-09-17T07:24:02.214Z,17.90
2018-09-17T07:26:30.737Z,17.90
2018-09-17T07:28:59.860Z,17.90
2018-09-17T07:31:28.315Z,17.80
2018-09-17T07:33:56.777Z,17.80
2018-09-17T07:36:25.713Z,17.90
2018-09-17T07:38:54.162Z,17.80
2018-09-17T07:41:22.627Z,17.80
2018-09-17T07:43:51.122Z,17.70
2018-09-17T07:46:19.660Z,17.70
2018-09-17T07:48:48.111Z,17.60
2018-09-17T07:51:16.594Z,17.60
2018-09-17T07:53:45.182Z,17.50
2018-09-17T07:56:13.647Z,17.50
2018-09-17T07:58:42.146Z,17.50
2018-09-17T08:01:10.620Z,17.50
2018-09-17T08:03:39.075Z,17.50
2018-09-17T08:06:07.575Z,17.50
2018-09-17T08:08:36.060Z,17.50
2018-09-17T08:11:04.534Z,17.60
2018-09-17T08:13:33.104Z,17.60
2018-09-17T08:16:01.583Z,17.80
2018-09-17T08:18:30.063Z,17.90
2018-09-17T08:20:58.582Z,18.00
2018-09-17T08:23:27.079Z,18.10
2018-09-17T08:25:55.558Z,18.20
2018-09-17T08:28:24.080Z,18.40
2018-09-17T08:30:52.542Z,18.40
2018-09-17T08:33:21.031Z,18.40
2018-09-17T08:35:49.595Z,18.40
2018-09-17T08:38:18.138Z,18.40
2018-09-17T08:40:46.569Z,18.60
2018-09-17T08:43:15.093Z,18.70
2018-09-17T08:45:43.578Z,18.80
2018-09-17T08:48:12.174Z,18.90
2018-09-17T08:50:41.534Z,18.90
2018-09-17T08:53:10.075Z,18.90
2018-09-17T08:55:44.281Z,19.10
2018-09-17T09:00:23.511Z,19.20
2018-09-17T09:03:02.454Z,19.40
2018-09-17T09:05:48.132Z,19.70
2018-09-17T09:08:16.725Z,19.80
2018-09-17T09:10:47.706Z,19.90
2018-09-17T09:13:24.314Z,19.90
2018-09-17T09:15:52.874Z,19.90
2018-09-17T09:18:21.382Z,19.90
2018-09-17T09:20:49.919Z,19.90
2018-09-17T09:23:18.384Z,19.90
2018-09-17T09:25:46.851Z,19.90
2018-09-17T09:28:15.346Z,19.90
2018-09-17T09:30:43.913Z,19.80
2018-09-17T09:33:12.621Z,19.70
2018-09-17T09:35:41.223Z,19.70
2018-09-17T09:38:09.802Z,19.50
2018-09-17T09:40:38.219Z,19.50
2018-09-17T09:43:06.850Z,19.40
2018-09-17T09:45:35.321Z,19.40
2018-09-17T09:48:03.797Z,19.50
2018-09-17T09:50:32.310Z,19.50
2018-09-17T09:53:00.795Z,19.50
2018-09-17T09:55:29.258Z,19.50
2018-09-17T09:57:57.762Z,19.50
2018-09-17T10:00:31.569Z,19.50
2018-09-17T10:03:01.123Z,19.40
2018-09-17T10:05:29.962Z,19.40
2018-09-17T10:07:58.431Z,19.50
2018-09-17T10:12:36.850Z,19.70
2018-09-17T10:15:10.707Z,19.80
2018-09-17T10:17:44.571Z,20.10
2018-09-17T10:20:13.030Z,20.30
2018-09-17T10:22:41.653Z,20.40
2018-09-17T10:25:10.152Z,20.50
2018-09-17T10:27:38.606Z,20.50
2018-09-17T10:30:07.126Z,20.50
2018-09-17T10:32:35.709Z,20.60
2018-09-17T10:35:04.206Z,20.60
2018-09-17T10:37:32.686Z,20.60
2018-09-17T10:40:01.287Z,20.60
2018-09-17T10:42:29.793Z,20.70
2018-09-17T10:44:58.246Z,20.80
2018-09-17T10:47:26.758Z,20.90
2018-09-17T10:49:55.238Z,20.90
2018-09-17T10:52:23.705Z,21.00
2018-09-17T10:54:52.212Z,21.00
2018-09-17T10:57:20.728Z,21.10
2018-09-17T10:59:49.186Z,21.20
2018-09-17T11:02:17.693Z,21.30
2018-09-17T11:04:46.219Z,21.50
2018-09-17T11:07:14.696Z,21.60
2018-09-17T11:09:43.246Z,21.60
2018-09-17T11:12:11.767Z,21.60
2018-09-17T11:14:40.230Z,21.70
2018-09-17T11:17:08.746Z,21.70
2018-09-17T11:19:37.202Z,21.80
2018-09-17T11:22:05.709Z,21.80
2018-09-17T11:24:34.215Z,21.80
2018-09-17T11:27:02.687Z,21.90
2018-09-17T11:29:31.138Z,22.00
2018-09-17T11:31:59.659Z,22.20
2018-09-17T11:34:28.114Z,22.30
2018-09-17T11:36:56.570Z,22.40
2018-09-17T11:39:25.090Z,22.50
2018-09-17T11:41:53.546Z,22.50
2018-09-17T11:44:22.014Z,22.50
2018-09-17T11:46:50.513Z,22.50
2018-09-17T11:49:18.966Z,22.50
2018-09-17T11:51:47.414Z,22.40
2018-09-17T11:54:15.955Z,22.40
2018-09-17T11:56:44.414Z,22.40
2018-09-17T11:59:12.895Z,22.30
2018-09-17T12:01:46.697Z,22.30
2018-09-17T12:04:16.697Z,22.30
2018-09-17T12:06:50.481Z,22.30
2018-09-17T12:09:19.252Z,22.20
2018-09-17T12:11:47.707Z,22.20
2018-09-17T12:14:16.327Z,22.10
2018-09-17T12:16:44.808Z,22.10
2018-09-17T12:19:13.254Z,22.10
2018-09-17T12:21:41.833Z,22.20
2018-09-17T12:24:10.294Z,22.40
2018-09-17T12:26:38.778Z,22.40
2018-09-17T12:29:07.287Z,22.40
2018-09-17T12:31:35.744Z,22.50
2018-09-17T12:34:04.234Z,22.50
2018-09-17T12:36:33.070Z,22.60
2018-09-17T12:39:01.561Z,22.60
2018-09-17T12:41:30.021Z,22.50
2018-09-17T12:43:58.509Z,22.40
2018-09-17T12:46:26.974Z,22.20
2018-09-17T12:48:55.430Z,22.00
2018-09-17T12:51:23.923Z,21.90
2018-09-17T12:53:52.442Z,21.70
2018-09-17T12:56:20.962Z,21.50
2018-09-17T12:58:49.554Z,21.40
2018-09-17T13:01:18.026Z,21.40
2018-09-17T13:03:46.495Z,21.30
2018-09-17T13:06:15.019Z,21.30
2018-09-17T13:08:43.495Z,21.20
2018-09-17T13:11:12.052Z,21.20
2018-09-17T13:13:40.566Z,21.10
2018-09-17T13:16:09.077Z,21.10
2018-09-17T13:18:37.550Z,21.00
2018-09-17T13:21:06.065Z,20.90
2018-09-17T13:23:34.510Z,20.90
2018-09-17T13:26:02.954Z,20.70
2018-09-17T13:28:31.563Z,20.60
2018-09-17T13:31:00.010Z,20.50
2018-09-17T13:33:28.521Z,20.30
2018-09-17T13:35:57.194Z,20.20
2018-09-17T13:38:25.662Z,20.00
2018-09-17T13:40:55.068Z,19.90
2018-09-17T13:43:23.593Z,19.70
2018-09-17T13:45:52.058Z,19.80
2018-09-17T13:48:20.861Z,19.80
2018-09-17T13:50:49.395Z,19.90
2018-09-17T13:53:17.867Z,20.10
2018-09-17T13:55:46.345Z,20.20
2018-09-17T13:58:14.864Z,20.40
2018-09-17T14:00:43.311Z,20.60
2018-09-17T14:03:11.739Z,20.70
2018-09-17T14:05:40.251Z,20.80
2018-09-17T14:08:08.693Z,20.80
2018-09-17T14:10:37.152Z,21.00
2018-09-17T14:13:05.771Z,21.10
2018-09-17T14:15:34.266Z,21.10
2018-09-17T14:18:02.739Z,21.30
2018-09-17T14:20:31.270Z,21.50
2018-09-17T14:22:59.766Z,21.50
2018-09-17T14:25:28.238Z,21.60
2018-09-17T14:27:56.738Z,21.70
2018-09-17T14:30:25.218Z,21.70
2018-09-17T14:32:59.035Z,21.80
2018-09-17T14:35:27.563Z,21.80
2018-09-17T14:37:55.970Z,21.70
2018-09-17T14:40:24.468Z,21.70
2018-09-17T14:42:52.930Z,21.70
2018-09-17T14:45:21.499Z,21.60
2018-09-17T14:47:49.993Z,21.60
2018-09-17T14:50:18.458Z,21.60
2018-09-17T14:52:46.927Z,21.50
2018-09-17T14:55:15.471Z,21.50
2018-09-17T14:57:43.978Z,21.40
2018-09-17T15:00:12.435Z,21.30
2018-09-17T15:02:40.969Z,21.30
2018-09-17T15:05:09.458Z,21.30
2018-09-17T15:07:37.990Z,21.30
2018-09-17T15:10:06.769Z,21.20
2018-09-17T15:12:35.554Z,21.20
2018-09-17T15:15:04.176Z,21.10
2018-09-17T15:17:32.767Z,21.10
2018-09-17T15:20:01.212Z,21.10
2018-09-17T15:22:29.756Z,21.10
2018-09-17T15:24:58.190Z,21.20
2018-09-17T15:27:26.709Z,21.10
2018-09-17T15:29:55.166Z,21.10
2018-09-17T15:32:23.904Z,21.10
2018-09-17T15:34:52.405Z,21.00
2018-09-17T15:37:20.926Z,21.00
2018-09-17T15:39:49.411Z,20.90
2018-09-17T15:42:17.891Z,20.80
2018-09-17T15:44:46.425Z,20.90
2018-09-17T15:47:15.622Z,20.80
2018-09-17T15:49:44.118Z,20.80
2018-09-17T15:52:12.746Z,20.70
2018-09-17T15:54:41.241Z,20.60
2018-09-17T15:57:09.682Z,20.60
2018-09-17T15:59:38.171Z,20.50
2018-09-17T16:02:07.023Z,20.50
2018-09-17T16:04:35.597Z,20.40
2018-09-17T16:07:08.331Z,20.40
2018-09-17T16:09:38.930Z,20.40
2018-09-17T16:12:11.178Z,20.30
2018-09-17T16:14:40.692Z,20.30
2018-09-17T16:17:10.397Z,20.20
2018-09-17T16:19:39.571Z,20.20
2018-09-17T16:22:08.593Z,20.20
2018-09-17T16:24:41.921Z,20.10
2018-09-17T16:27:12.001Z,20.10
2018-09-17T16:29:41.279Z,20.10
2018-09-17T16:32:10.410Z,20.00
2018-09-17T16:34:38.850Z,20.00
2018-09-17T16:37:07.359Z,20.00
2018-09-17T16:39:35.854Z,19.90
2018-09-17T16:42:05.051Z,19.90
2018-09-17T16:44:33.494Z,19.90
2018-09-17T16:47:02.090Z,19.80
2018-09-17T16:49:30.527Z,19.80
2018-09-17T16:51:58.962Z,19.70
2018-09-17T16:54:30.101Z,19.70
2018-09-17T16:57:06.510Z,19.60
2018-09-17T16:59:38.581Z,19.60
2018-09-17T17:02:07.027Z,19.50
2018-09-17T17:04:35.506Z,19.40
2018-09-17T17:07:04.050Z,19.40
2018-09-17T17:09:32.643Z,19.30
2018-09-17T17:12:01.045Z,19.30
2018-09-17T17:14:29.595Z,19.20
2018-09-17T17:16:58.039Z,19.10
2018-09-17T17:19:26.501Z,19.10
2018-09-17T17:21:55.765Z,19.10
2018-09-17T17:24:24.215Z,19.10
2018-09-17T17:26:52.704Z,19.00
2018-09-17T17:29:21.290Z,19.00
2018-09-17T17:31:49.730Z,19.00
2018-09-17T17:34:18.230Z,19.00
2018-09-17T17:36:46.762Z,19.00
2018-09-17T17:39:15.233Z,18.90
2018-09-17T17:41:43.663Z,18.90
2018-09-17T17:44:12.152Z,18.80
2018-09-17T17:46:40.703Z,18.80
2018-09-17T17:49:09.150Z,18.70
2018-09-17T17:51:37.671Z,18.80
2018-09-17T17:54:06.137Z,18.80
2018-09-17T17:56:34.579Z,18.70
2018-09-17T17:59:03.075Z,18.70
2018-09-17T18:01:31.534Z,18.70
2018-09-17T18:04:00.039Z,18.70
2018-09-17T18:06:28.567Z,18.70
2018-09-17T18:08:57.023Z,18.60
2018-09-17T18:11:25.478Z,18.60
2018-09-17T18:13:53.998Z,18.60
2018-09-17T18:16:26.680Z,18.60
2018-09-17T18:18:55.146Z,18.60
2018-09-17T18:21:23.625Z,18.60
2018-09-17T18:23:52.088Z,18.60
2018-09-17T18:26:20.583Z,18.60
2018-09-17T18:28:49.063Z,18.50
2018-09-17T18:31:17.532Z,18.50
2018-09-17T18:33:46.030Z,18.50
2018-09-17T18:36:14.630Z,18.40
2018-09-17T18:38:43.213Z,18.40
2018-09-17T18:41:11.854Z,18.30
2018-09-17T18:43:40.306Z,18.30
2018-09-17T18:46:08.867Z,18.30
2018-09-17T18:48:39.170Z,18.20
2018-09-17T18:51:07.984Z,18.10
2018-09-17T18:53:36.546Z,18.10
2018-09-17T18:56:05.078Z,18.00
2018-09-17T18:58:33.534Z,18.00
2018-09-17T19:01:02.018Z,18.00
2018-09-17T19:03:30.519Z,18.00
2018-09-17T19:06:35.036Z,17.90
2018-09-17T19:09:05.250Z,17.90
2018-09-17T19:11:33.807Z,17.90
2018-09-17T19:14:07.390Z,17.90
2018-09-17T19:16:41.120Z,17.80
2018-09-17T19:19:09.614Z,17.70
2018-09-17T19:21:43.528Z,17.70
2018-09-17T19:24:12.025Z,17.70
2018-09-17T19:26:40.522Z,17.70
2018-09-17T19:29:14.122Z,17.70
2018-09-17T19:31:42.637Z,17.60
2018-09-17T19:34:11.152Z,17.50
2018-09-17T19:36:39.677Z,17.60
2018-09-17T19:41:19.082Z,17.50
2018-09-17T19:43:47.718Z,17.50
2018-09-17T19:46:18.332Z,17.40
2018-09-17T19:48:47.154Z,17.40
2018-09-17T19:51:21.050Z,17.40
2018-09-17T19:53:49.531Z,17.30
2018-09-17T19:56:18.007Z,17.30
2018-09-17T19:58:51.665Z,17.30
2018-09-17T20:01:20.307Z,17.30
2018-09-17T20:03:48.862Z,17.20
2018-09-17T20:06:21.868Z,17.20
2018-09-17T20:08:50.386Z,17.20
2018-09-17T20:11:19.430Z,17.20
2018-09-17T20:13:48.076Z,17.20
2018-09-17T20:16:16.598Z,17.20
2018-09-17T20:18:45.598Z,17.20
2018-09-17T20:21:14.090Z,17.20
2018-09-17T20:23:42.613Z,17.10
2018-09-17T20:26:11.090Z,17.10
2018-09-17T20:28:39.622Z,17.10
2018-09-17T20:31:08.222Z,17.00
2018-09-17T20:33:37.058Z,17.00
2018-09-17T20:36:05.683Z,16.90
2018-09-17T20:38:34.210Z,16.90
2018-09-17T20:41:02.649Z,16.80
2018-09-17T20:43:31.158Z,16.80
2018-09-17T20:45:59.746Z,16.70
2018-09-17T20:48:28.215Z,16.70
2018-09-17T20:50:56.733Z,16.70
2018-09-17T20:53:25.222Z,16.60
2018-09-17T20:55:53.695Z,16.60
2018-09-17T20:58:22.259Z,16.60
2018-09-17T21:00:50.788Z,16.60
2018-09-17T21:03:19.323Z,16.50
2018-09-17T21:05:47.827Z,16.50
2018-09-17T21:08:16.292Z,16.40
2018-09-17T21:10:44.778Z,16.40
2018-09-17T21:13:13.294Z,16.40
2018-09-17T21:15:41.759Z,16.40
2018-09-17T21:18:10.252Z,16.30
2018-09-17T21:20:38.785Z,16.30
2018-09-17T21:23:07.397Z,16.30
2018-09-17T21:25:35.841Z,16.20
2018-09-17T21:28:04.403Z,16.20
2018-09-17T21:30:32.799Z,16.10
2018-09-17T21:33:01.246Z,16.10
2018-09-17T21:35:29.707Z,16.10
2018-09-17T21:37:58.147Z,16.10
2018-09-17T21:40:26.605Z,16.10
2018-09-17T21:42:55.146Z,16.10
2018-09-17T21:45:23.568Z,16.10
2018-09-17T21:47:52.008Z,16.10
2018-09-17T21:50:20.507Z,16.00
2018-09-17T21:52:48.951Z,16.00
2018-09-17T21:55:17.390Z,16.00
2018-09-17T21:57:45.882Z,16.00
2018-09-17T22:00:14.407Z,16.10
2018-09-17T22:02:42.914Z,16.10
2018-09-17T22:05:11.479Z,16.00
2018-09-17T22:07:40.005Z,16.00
2018-09-17T22:10:08.579Z,16.00
2018-09-17T22:12:37.067Z,16.00
2018-09-17T22:15:05.554Z,16.00
2018-09-17T22:17:33.993Z,16.00
2018-09-17T22:20:02.518Z,15.90
2018-09-17T22:22:30.981Z,15.90
2018-09-17T22:24:59.458Z,15.90
2018-09-17T22:27:27.958Z,15.90
2018-09-17T22:29:56.482Z,15.90
2018-09-17T22:32:24.960Z,15.90
2018-09-17T22:34:53.502Z,15.90
2018-09-17T22:37:21.970Z,15.80
2018-09-17T22:39:50.442Z,15.80
2018-09-17T22:42:19.015Z,15.80
2018-09-17T22:44:47.495Z,15.80
2018-09-17T22:47:16.014Z,15.80
2018-09-17T22:49:44.519Z,15.80
2018-09-17T22:52:12.998Z,15.80
2018-09-17T22:54:41.475Z,15.80
2018-09-17T22:57:10.020Z,15.80
2018-09-17T22:59:38.482Z,15.80
2018-09-17T23:02:07.039Z,15.70
2018-09-17T23:04:35.522Z,15.80
2018-09-17T23:07:03.995Z,15.70
2018-09-17T23:09:32.478Z,15.70
2018-09-17T23:12:00.980Z,15.70
2018-09-17T23:14:29.450Z,15.60
2018-09-17T23:16:58.163Z,15.70
2018-09-17T23:19:26.677Z,15.60
2018-09-17T23:21:56.027Z,15.60
2018-09-17T23:24:24.486Z,15.60
2018-09-17T23:26:53.086Z,15.60
2018-09-17T23:29:21.543Z,15.60
2018-09-17T23:31:50.016Z,15.60
2018-09-17T23:34:18.562Z,15.60
2018-09-17T23:36:47.026Z,15.60
2018-09-17T23:39:15.471Z,15.60
2018-09-17T23:41:43.963Z,15.60
2018-09-17T23:44:12.444Z,15.60
2018-09-17T23:46:40.923Z,15.60
2018-09-17T23:49:09.437Z,15.60
2018-09-17T23:51:37.906Z,15.60
2018-09-17T23:54:06.419Z,15.60
2018-09-17T23:56:34.937Z,15.60
2018-09-17T23:59:03.408Z,15.60
